Cody Paul — WDC8106 — position and weather

sailwx.info

Track history (hours):
 
Tides and Currents Weather Stations Pressure Air Temp Water Temp Dewpoint Dewpoint Depression Visibility Wind Speed Wind Dir Waves Ship Positions

Cody Paul

Owner: Triple S Marine, LLC, Morgan City, LA. More information available from US FCC via Universal Licensing System and Coast Guard Vessel Documentation Center.

Last reported at 2017-Oct-21 16:50 UTC. Time now 2017-Oct-22 23:00 UTC.
Position N 29°34' W 090°28'.

Length 16 m; draft 3 m.

Type: Tug. MMSI: 367081770.

Date/timePositionNaut miles runAvg speedWind from/ knotsBaromVisibWave heightAir tempDewpointWater temp
2017-Oct-21 16:50N 29°34' W 090°28'2 7.1
2017-Oct-21 16:30N 29°34' W 090°31'1 1.3
2017-Oct-21 16:00N 29°33' W 090°32'0 0.1
2017-Oct-21 15:01N 29°33' W 090°32'0 0.0
2017-Oct-21 14:36N 29°33' W 090°32'0 0.0
2017-Oct-21 10:11N 29°33' W 090°32'0 0.3
2017-Oct-21 09:58N 29°33' W 090°32'0 0.1
2017-Oct-21 09:24N 29°33' W 090°32'0 0.8
2017-Oct-21 08:59N 29°34' W 090°32'7 0.3
2017-Oct-20 05:56N 29°33' W 090°24'4 6.6
2017-Oct-20 05:23N 29°33' W 090°28'2 6.7
2017-Oct-20 05:00N 29°34' W 090°31'1 0.1
2017-Oct-19 21:02N 29°33' W 090°32'0 0.7
2017-Oct-19 20:50N 29°33' W 090°32'0 0.0
2017-Oct-19 12:05N 29°33' W 090°32'0 0.0
2017-Oct-19 11:40N 29°33' W 090°32'0 0.0
2017-Oct-19 11:21N 29°33' W 090°32'0 0.0
2017-Oct-19 10:47N 29°33' W 090°32'0 0.0
2017-Oct-19 10:26N 29°33' W 090°32'0 0.0
2017-Oct-19 10:00N 29°33' W 090°32'0 0.0
2017-Oct-19 09:30N 29°33' W 090°32'0 0.0
2017-Oct-19 08:55N 29°33' W 090°32'0 0.0
2017-Oct-19 08:19N 29°33' W 090°32'0 0.0
2017-Oct-19 06:19N 29°33' W 090°32'0 0.0
2017-Oct-19 06:00N 29°33' W 090°32'0 0.0
2017-Oct-19 05:30N 29°33' W 090°32'0 0.0
2017-Oct-19 04:59N 29°33' W 090°32'0 0.0
2017-Oct-19 04:30N 29°33' W 090°32'0 0.0
2017-Oct-19 03:59N 29°33' W 090°32'0 0.0
2017-Oct-18 19:48N 29°33' W 090°32'  
2017-Oct-14 09:42N 29°38' W 090°21'5 5.6
2017-Oct-14 08:47N 29°33' W 090°24'2 6.2
2017-Oct-14 08:25N 29°33' W 090°26'3 6.3
2017-Oct-14 08:00N 29°34' W 090°29'2 3.7
2017-Oct-14 07:26N 29°33' W 090°32'0 0.3
2017-Oct-14 07:00N 29°33' W 090°32'0 0.0
2017-Oct-14 06:30N 29°33' W 090°32'0 0.1
2017-Oct-14 05:56N 29°33' W 090°32'0 0.0
2017-Oct-14 05:25N 29°33' W 090°32'7 0.2
2017-Oct-12 23:59N 29°33' W 090°24'3 5.9
2017-Oct-12 23:30N 29°33' W 090°27'3 5.8
2017-Oct-12 23:00N 29°34' W 090°30'1 2.1
2017-Oct-12 22:30N 29°33' W 090°32'0 0.0
2017-Oct-12 06:54N 29°33' W 090°32'0 0.0
2017-Oct-12 06:30N 29°33' W 090°32'0 0.0
2017-Oct-12 05:32N 29°33' W 090°32'0 0.0
2017-Oct-12 05:27N 29°33' W 090°32'0 0.0
2017-Oct-12 04:17N 29°33' W 090°32'0 0.0
2017-Oct-12 03:46N 29°33' W 090°32'0 0.0
2017-Oct-12 03:27N 29°33' W 090°32'  
Track history (hours):
 
Tides and Currents Weather Stations Pressure Air Temp Water Temp Dewpoint Dewpoint Depression Visibility Wind Speed Wind Dir Waves Ship Positions

Cody Paul

Owner: Triple S Marine, LLC, Morgan City, LA. More information available from US FCC via Universal Licensing System and Coast Guard Vessel Documentation Center.

Last reported at 2017-Oct-21 16:50 UTC. Time now 2017-Oct-22 23:00 UTC.
Position N 29°34' W 090°28'.

Length 16 m; draft 3 m.

Type: Tug. MMSI: 367081770.

Date/timePositionNaut miles runAvg speedWind from/ knotsBaromVisibWave heightAir tempDewpointWater temp
2017-Oct-21 16:50N 29°34' W 090°28'2 7.1
2017-Oct-21 16:30N 29°34' W 090°31'1 1.3
2017-Oct-21 16:00N 29°33' W 090°32'0 0.1
2017-Oct-21 15:01N 29°33' W 090°32'0 0.0
2017-Oct-21 14:36N 29°33' W 090°32'0 0.0
2017-Oct-21 10:11N 29°33' W 090°32'0 0.3
2017-Oct-21 09:58N 29°33' W 090°32'0 0.1
2017-Oct-21 09:24N 29°33' W 090°32'0 0.8
2017-Oct-21 08:59N 29°34' W 090°32'7 0.3
2017-Oct-20 05:56N 29°33' W 090°24'4 6.6
2017-Oct-20 05:23N 29°33' W 090°28'2 6.7
2017-Oct-20 05:00N 29°34' W 090°31'1 0.1
2017-Oct-19 21:02N 29°33' W 090°32'0 0.7
2017-Oct-19 20:50N 29°33' W 090°32'0 0.0
2017-Oct-19 12:05N 29°33' W 090°32'0 0.0
2017-Oct-19 11:40N 29°33' W 090°32'0 0.0
2017-Oct-19 11:21N 29°33' W 090°32'0 0.0
2017-Oct-19 10:47N 29°33' W 090°32'0 0.0
2017-Oct-19 10:26N 29°33' W 090°32'0 0.0
2017-Oct-19 10:00N 29°33' W 090°32'0 0.0
2017-Oct-19 09:30N 29°33' W 090°32'0 0.0
2017-Oct-19 08:55N 29°33' W 090°32'0 0.0
2017-Oct-19 08:19N 29°33' W 090°32'0 0.0
2017-Oct-19 06:19N 29°33' W 090°32'0 0.0
2017-Oct-19 06:00N 29°33' W 090°32'0 0.0
2017-Oct-19 05:30N 29°33' W 090°32'0 0.0
2017-Oct-19 04:59N 29°33' W 090°32'0 0.0
2017-Oct-19 04:30N 29°33' W 090°32'0 0.0
2017-Oct-19 03:59N 29°33' W 090°32'0 0.0
2017-Oct-18 19:48N 29°33' W 090°32'  
2017-Oct-14 09:42N 29°38' W 090°21'5 5.6
2017-Oct-14 08:47N 29°33' W 090°24'2 6.2
2017-Oct-14 08:25N 29°33' W 090°26'3 6.3
2017-Oct-14 08:00N 29°34' W 090°29'2 3.7
2017-Oct-14 07:26N 29°33' W 090°32'0 0.3
2017-Oct-14 07:00N 29°33' W 090°32'0 0.0
2017-Oct-14 06:30N 29°33' W 090°32'0 0.1
2017-Oct-14 05:56N 29°33' W 090°32'0 0.0
2017-Oct-14 05:25N 29°33' W 090°32'7 0.2
2017-Oct-12 23:59N 29°33' W 090°24'3 5.9
2017-Oct-12 23:30N 29°33' W 090°27'3 5.8
2017-Oct-12 23:00N 29°34' W 090°30'1 2.1
2017-Oct-12 22:30N 29°33' W 090°32'0 0.0
2017-Oct-12 06:54N 29°33' W 090°32'0 0.0
2017-Oct-12 06:30N 29°33' W 090°32'0 0.0
2017-Oct-12 05:32N 29°33' W 090°32'0 0.0
2017-Oct-12 05:27N 29°33' W 090°32'0 0.0
2017-Oct-12 04:17N 29°33' W 090°32'0 0.0
2017-Oct-12 03:46N 29°33' W 090°32'0 0.0
2017-Oct-12 03:27N 29°33' W 090°32'  

Dump ship's entire track history